Port Perry, Canada
Current Conditions -  °F | °C
As of 11:06 AM on Tuesday 21 Oct 2014 (Local Time) from CYOO Reporting Station
Overcast Overcast  
Wind Chill: 43°   Ceiling: 1000
Heat Index: 48°   Visibility: 9mi
Dew Point: 46°   Wind: 13mph
Humidity: 93%   Direction: 20°NNE
Pressure: 29.87"   Gusts: 20mph
Location:  44.1°N, 78.93°W
Report Text: CYOO 211506Z AUTO 02011G17KT 9SM OVC010 09/08 A2987 RMK SLP119
Loading
Personal Weather Stations






























Interactive Weather Map
Tropical Storm Tracking
New forecast layout! Learn more

10-Day Weather Forecast

Advertisements
Track Severe Weather on mobile